EST,Max TemperatureF,Mean TemperatureF,Min TemperatureF,Max Dew PointF,MeanDew PointF,Min DewpointF,Max Humidity, Mean Humidity, Min Humidity, Max Sea Level PressureIn, Mean Sea Level PressureIn, Min Sea Level PressureIn, Max VisibilityMiles, Mean VisibilityMiles, Min VisibilityMiles, Max Wind SpeedMPH, Mean Wind SpeedMPH, Max Gust SpeedMPH,PrecipitationIn, CloudCover, Events, WindDirDegrees
2013-11-1,69,62,54,62,56,51,93,77,59,29.75,29.54,29.42,10,8,4,20,12,36,0.04,5,Rain,199
2013-11-2,66,54,43,48,42,37,89,67,36,29.77,29.68,29.62,10,10,10,7,2,,0.01,3,Rain,306
2013-11-3,46,41,32,42,23,11,80,53,27,30.45,30.12,29.80,10,10,9,15,11,21,0.00,4,Rain-Snow,330
2013-11-4,43,34,26,21,15,10,75,51,26,30.75,30.66,30.50,10,10,10,8,3,,0.00,0,,347
2013-11-5,48,36,25,30,24,19,78,62,41,30.76,30.66,30.53,10,10,10,8,2,,0.00,0,,177
2013-11-6,61,49,37,45,38,30,83,66,46,30.53,30.30,30.03,10,10,10,13,5,20,0.00,0,,189
2013-11-7,63,52,42,54,46,33,86,74,65,30.00,29.82,29.70,10,10,10,15,9,22,0.02,6,Rain,250
2013-11-8,45,38,32,33,24,20,77,56,46,30.10,29.95,29.84,10,10,10,16,8,30,0.01,4,Rain,292
2013-11-9,44,38,32,26,21,18,66,49,38,30.24,30.15,30.05,10,10,10,12,5,21,0.00,4,,238
2013-11-10,48,42,37,41,35,26,93,73,55,30.03,29.86,29.76,10,10,8,12,3,18,0.03,5,Rain,252
2013-11-11,50,44,39,28,25,21,60,47,32,30.12,30.00,29.90,10,10,10,20,10,30,0.00,4,,256
2013-11-12,46,37,28,34,20,13,87,56,42,30.22,30.08,29.90,10,9,3,17,9,25,0.00,4,Rain-Snow,316
2013-11-13,35,30,24,13,10,7,58,46,34,30.33,30.26,30.17,10,10,10,15,8,21,0.00,0,,291
2013-11-14,50,39,28,26,21,14,79,51,35,30.14,30.10,30.06,10,10,10,12,6,17,0.00,0,,231
2013-11-15,59,42,26,26,21,11,88,55,15,30.22,30.17,30.12,10,10,8,8,1,,0.00,0,,207
2013-11-16,59,46,32,29,26,22,82,57,25,30.35,30.30,30.22,10,10,10,6,1,,0.00,2,,360
2013-11-17,45,38,30,45,36,27,100,91,80,30.35,30.21,29.88,10,3,0,5,1,,0.01,7,Fog-Rain,324
2013-11-18,63,54,44,59,46,29,100,73,38,29.84,29.61,29.50,10,7,0,18,6,26,0.15,5,Fog-Rain,220
2013-11-19,46,39,30,28,18,13,51,44,35,30.32,30.01,29.69,10,10,10,23,13,34,0.00,2,,308
2013-11-20,39,34,28,15,12,8,58,43,27,30.66,30.55,30.33,10,10,10,21,13,30,0.00,0,,334
2013-11-21,46,32,19,25,17,8,81,54,21,30.68,30.57,30.40,10,10,10,6,1,,0.00,0,,194
2013-11-22,42,39,36,41,38,27,100,92,65,30.37,30.03,29.79,10,2,0,6,2,,0.15,8,Fog-Rain,237
2013-11-23,45,38,28,41,25,8,100,63,38,29.96,29.84,29.76,10,8,0,21,7,29,0.01,3,Snow,275
2013-11-24,28,24,19,19,4,-6,93,48,26,30.22,29.95,29.79,10,8,0,32,17,53,0.02,2,Fog-Snow,307
2013-11-25,32,24,16,11,-1,-11,47,34,20,30.40,30.33,30.25,10,10,10,15,8,24,0.00,0,,262
2013-11-26,36,32,28,32,22,11,96,67,43,30.36,30.27,30.08,10,8,2,9,5,,0.08,8,Rain-Snow,192
2013-11-27,54,44,33,54,46,26,100,92,62,30.05,29.47,29.24,10,4,0,24,9,34,1.94,8,Rain-Snow,34
2013-11-28,37,30,19,28,11,1,70,47,29,30.46,30.08,29.51,10,10,10,20,11,31,0.00,2,,281
2013-11-29,30,24,18,11,6,-2,68,48,25,30.79,30.62,30.48,10,10,10,14,4,22,0.00,2,,328
2013-11-30,30,21,12,18,11,7,81,60,41,30.86,30.71,30.48,10,10,10,9,3,,0.00,3,,158